Time;durP1;ratioP1;P1;durP2;ratioP2;P2;SDS_P1;SDS_P2;PMS_P1;PMS_P2;Temp;Humidity;BMP_temperature;BMP_pressure;BME280_temperature;BME280_humidity;BME280_pressure;Samples;Min_cycle;Max_cycle;Signal;HPM_P1;HPM_P2
2022/08/29 00:00:26;;;;;;;;;;;25.80;99.90;;;;;;5052526;28;20194;-72
2022/08/29 00:02:54;;;;;;;;;;;25.80;99.90;;;;;;5052434;28;19962;-72
2022/08/29 00:05:22;;;;;;;8.05;4.47;;;25.80;99.90;;;;;;5052116;28;19911;-72
2022/08/29 00:07:48;;;;;;;7.95;4.40;;;25.80;99.90;;;;;;5051921;28;20104;-72
2022/08/29 00:10:15;;;;;;;10.77;5.70;;;25.80;99.90;;;;;;5051825;28;20044;-72
2022/08/29 00:12:41;;;;;;;8.68;4.78;;;25.80;99.90;;;;;;5052157;28;20043;-72
2022/08/29 00:15:13;;;;;;;;;;;25.80;99.90;;;;;;5052668;28;20056;-72
2022/08/29 00:17:40;;;;;;;7.88;5.03;;;25.80;99.90;;;;;;5051706;28;20287;-72
2022/08/29 00:20:07;;;;;;;;;;;25.80;99.90;;;;;;5052503;28;20031;-72
2022/08/29 00:22:33;;;;;;;6.47;3.75;;;25.80;99.90;;;;;;5051709;28;19912;-73
2022/08/29 00:25:03;;;;;;;7.65;3.90;;;25.80;99.90;;;;;;5051648;28;20099;-72
2022/08/29 00:27:30;;;;;;;8.38;4.53;;;25.90;99.90;;;;;;5051555;28;20056;-72
2022/08/29 00:29:56;;;;;;;6.82;4.25;;;25.90;99.90;;;;;;5051788;28;20099;-72
2022/08/29 00:32:22;;;;;;;8.90;4.65;;;26.00;99.90;;;;;;5049686;28;20458;-72
2022/08/29 00:34:48;;;;;;;8.35;4.95;;;26.00;99.90;;;;;;5051746;28;20021;-72
2022/08/29 00:37:15;;;;;;;8.32;4.57;;;25.90;99.90;;;;;;5051585;28;20020;-72
2022/08/29 00:39:56;;;;;;;10.45;4.70;;;26.00;99.90;;;;;;5051434;28;20496;-72
2022/08/29 00:42:22;;;;;;;10.32;4.50;;;26.00;99.90;;;;;;5051828;28;20033;-72
2022/08/29 00:44:48;;;;;;;11.13;4.47;;;26.10;99.90;;;;;;5051338;28;20017;-72
2022/08/29 00:47:18;;;;;;;9.52;4.72;;;26.00;99.90;;;;;;5051779;28;20021;-72
2022/08/29 00:49:46;;;;;;;8.82;4.28;;;26.10;99.90;;;;;;5051784;28;20037;-72
2022/08/29 00:52:27;;;;;;;8.55;4.18;;;26.00;99.90;;;;;;5051845;28;20060;-72
2022/08/29 00:54:55;;;;;;;8.32;4.43;;;26.10;99.90;;;;;;5051755;28;20461;-72
2022/08/29 00:57:22;;;;;;;7.13;4.45;;;26.00;99.90;;;;;;5051337;28;20025;-72
2022/08/29 00:59:49;;;;;;;7.07;4.00;;;26.00;99.90;;;;;;5051678;28;20122;-72
2022/08/29 01:02:17;;;;;;;9.20;4.40;;;26.00;99.90;;;;;;5051622;28;20493;-72
2022/08/29 01:04:43;;;;;;;14.50;4.18;;;25.90;99.90;;;;;;5051400;28;20025;-72
2022/08/29 01:07:09;;;;;;;;;;;25.90;99.90;;;;;;5051753;28;20026;-72
2022/08/29 01:09:37;;;;;;;6.72;3.95;;;25.90;99.90;;;;;;5051049;28;19920;-72
2022/08/29 01:12:16;;;;;;;6.45;4.20;;;25.80;99.90;;;;;;5051626;28;20458;-72
2022/08/29 01:15:01;;;;;;;7.70;4.43;;;25.80;99.90;;;;;;5051531;28;20024;-72
2022/08/29 01:17:39;;;;;;;10.18;4.22;;;25.80;99.90;;;;;;5051109;28;20106;-72
2022/08/29 01:20:09;;;;;;;7.68;4.45;;;25.80;99.90;;;;;;5051763;28;20116;-72
2022/08/29 01:23:02;;;;;;;11.77;5.43;;;25.80;99.90;;;;;;5051583;28;20025;-72
2022/08/29 01:25:38;;;;;;;9.88;5.30;;;25.70;99.90;;;;;;5048470;28;20044;-72
2022/08/29 01:28:08;;;;;;;;;;;25.70;99.90;;;;;;5051201;28;20077;-72
2022/08/29 01:30:34;;;;;;;8.90;4.90;;;25.60;99.90;;;;;;5051072;28;19917;-72
2022/08/29 01:33:02;;;;;;;8.13;5.25;;;25.50;99.90;;;;;;5051026;28;20029;-72
2022/08/29 01:35:28;;;;;;;12.48;5.80;;;25.50;99.90;;;;;;5051219;28;20056;-72
2022/08/29 01:37:55;;;;;;;12.00;6.50;;;25.40;99.90;;;;;;5051315;28;20041;-72
2022/08/29 01:40:28;;;;;;;11.25;6.00;;;25.30;99.90;;;;;;5051183;28;20099;-72
2022/08/29 01:42:56;;;;;;;9.55;5.88;;;25.30;99.90;;;;;;5052884;28;20029;-72
2022/08/29 01:45:22;;;;;;;15.20;6.10;;;25.20;99.90;;;;;;5054668;28;20024;-72
2022/08/29 01:47:49;;;;;;;10.98;5.82;;;25.10;99.90;;;;;;5054907;28;20029;-72
2022/08/29 01:50:15;;;;;;;8.13;5.45;;;25.00;99.90;;;;;;5054424;28;20083;-72
2022/08/29 01:52:42;;;;;;;8.43;6.03;;;25.00;99.90;;;;;;5054585;28;20028;-72
2022/08/29 01:55:09;;;;;;;9.32;5.80;;;24.90;99.90;;;;;;5054832;28;20025;-72
2022/08/29 01:57:37;;;;;;;7.80;5.30;;;24.90;99.90;;;;;;5054334;28;20032;-72
2022/08/29 02:00:05;;;;;;;9.55;6.00;;;24.80;99.90;;;;;;5054589;28;20108;-71
2022/08/29 02:02:31;;;;;;;12.30;6.60;;;24.80;99.90;;;;;;5054297;28;20394;-72
2022/08/29 02:04:57;;;;;;;11.00;5.82;;;24.80;99.90;;;;;;5054412;28;20104;-72
2022/08/29 02:07:25;;;;;;;13.13;6.25;;;24.80;99.90;;;;;;5054215;28;20063;-72
2022/08/29 02:09:51;;;;;;;9.75;5.50;;;24.80;99.90;;;;;;5052611;28;20485;-72
2022/08/29 02:12:19;;;;;;;10.10;5.82;;;24.80;99.90;;;;;;5052792;28;20029;-72
2022/08/29 02:14:45;;;;;;;13.10;5.80;;;24.90;99.90;;;;;;5054065;28;20090;-72
2022/08/29 02:17:11;;;;;;;;;;;24.80;99.90;;;;;;5054816;28;20017;-72
2022/08/29 02:19:38;;;;;;;8.73;5.43;;;24.80;99.90;;;;;;5053972;28;19904;-72
2022/08/29 02:22:06;;;;;;;9.55;6.20;;;24.80;99.90;;;;;;5054012;28;20048;-72
2022/08/29 02:24:32;;;;;;;8.63;5.80;;;24.80;99.90;;;;;;5053981;28;20056;-72
2022/08/29 02:26:59;;;;;;;8.85;5.60;;;24.80;99.90;;;;;;5053673;28;20041;-72
2022/08/29 02:29:26;;;;;;;7.40;4.93;;;24.80;99.90;;;;;;5053734;28;20033;-72
2022/08/29 02:31:53;;;;;;;10.27;5.43;;;24.80;99.90;;;;;;5053682;28;20032;-72
2022/08/29 02:34:20;;;;;;;8.35;5.22;;;24.90;99.90;;;;;;5053724;28;20048;-72
2022/08/29 02:36:46;;;;;;;8.30;5.32;;;24.90;99.90;;;;;;5052231;28;20515;-71
2022/08/29 02:39:12;;;;;;;7.85;4.70;;;24.90;99.90;;;;;;5053831;28;20100;-72
2022/08/29 02:41:38;;;;;;;8.85;4.70;;;24.80;99.90;;;;;;5053979;28;20178;-73
2022/08/29 02:44:04;;;;;;;7.38;4.47;;;24.60;99.90;;;;;;5053460;28;20024;-72
2022/08/29 02:46:30;;;;;;;9.52;5.03;;;24.60;99.90;;;;;;5053409;28;20056;-72
2022/08/29 02:48:57;;;;;;;8.82;5.28;;;24.50;99.90;;;;;;5053241;28;20033;-72
2022/08/29 02:51:29;;;;;;;8.10;4.63;;;24.50;99.90;;;;;;5051922;28;20021;-72
2022/08/29 02:53:55;;;;;;;7.80;4.40;;;24.50;99.90;;;;;;5053003;28;20025;-72
2022/08/29 02:56:22;;;;;;;7.28;4.53;;;24.50;99.90;;;;;;5053157;28;20123;-72
2022/08/29 02:58:51;;;;;;;10.77;5.20;;;24.50;99.90;;;;;;5053385;28;20028;-72
2022/08/29 03:01:19;;;;;;;11.40;5.07;;;24.50;99.90;;;;;;5053333;28;20032;-71
2022/08/29 03:03:45;;;;;;;12.30;5.32;;;24.50;99.90;;;;;;5053542;28;20047;-71
2022/08/29 03:06:11;;;;;;;9.27;5.20;;;24.60;99.90;;;;;;5053538;28;20021;-72
2022/08/29 03:08:38;;;;;;;9.73;4.97;;;24.60;99.90;;;;;;5053513;28;20029;-72
2022/08/29 03:11:05;;;;;;;7.95;5.13;;;24.60;99.90;;;;;;5053175;28;20075;-72
2022/08/29 03:13:32;;;;;;;11.45;5.13;;;24.50;99.90;;;;;;5053189;28;20021;-71
2022/08/29 03:15:59;;;;;;;10.15;4.80;;;24.60;99.90;;;;;;5052905;28;20032;-71
2022/08/29 03:18:25;;;;;;;10.55;5.07;;;24.50;99.90;;;;;;5053194;28;20492;-71
2022/08/29 03:20:52;;;;;;;9.18;4.82;;;24.60;99.90;;;;;;5054247;28;20465;-72
2022/08/29 03:23:18;;;;;;;9.43;5.20;;;24.50;99.90;;;;;;5053715;28;20103;-71
2022/08/29 03:25:45;;;;;;;7.80;4.68;;;24.40;99.90;;;;;;5053716;28;20025;-71
2022/08/29 03:28:11;;;;;;;8.35;4.85;;;24.40;99.90;;;;;;5053482;28;20446;-71
2022/08/29 03:30:37;;;;;;;7.07;4.57;;;24.40;99.90;;;;;;5054389;28;20044;-72
2022/08/29 03:33:04;;;;;;;11.73;4.70;;;24.40;99.90;;;;;;5053878;28;20060;-72
2022/08/29 03:35:31;;;;;;;9.82;4.43;;;24.40;99.90;;;;;;5053953;28;20032;-72
2022/08/29 03:37:57;;;;;;;7.60;4.38;;;24.40;99.90;;;;;;5053447;28;20104;-71
2022/08/29 03:40:24;;;;;;;8.70;3.90;;;24.40;99.90;;;;;;5053670;28;20021;-71
2022/08/29 03:42:51;;;;;;;9.32;3.97;;;24.20;99.90;;;;;;5053381;28;20066;-71
2022/08/29 03:45:18;;;;;;;6.45;3.58;;;24.10;99.90;;;;;;5053093;28;20051;-71
2022/08/29 03:47:44;;;;;;;10.82;3.83;;;24.10;99.90;;;;;;5052109;28;20346;-71
2022/08/29 03:50:13;;;;;;;7.15;3.30;;;24.10;99.90;;;;;;5051878;28;20037;-70
2022/08/29 03:52:42;;;;;;;6.70;3.58;;;24.00;99.90;;;;;;5052233;28;20025;-72
2022/08/29 03:55:09;;;;;;;7.40;3.50;;;23.90;99.90;;;;;;5052207;28;20029;-71
2022/08/29 03:57:35;;;;;;;6.25;3.35;;;24.00;99.90;;;;;;5052852;28;20021;-70
2022/08/29 04:00:14;;;;;;;7.35;3.70;;;23.90;99.90;;;;;;5052985;28;20021;-71
2022/08/29 04:02:41;;;;;;;6.72;3.45;;;24.00;99.90;;;;;;5052516;28;20033;-70
2022/08/29 04:05:08;;;;;;;10.68;3.97;;;24.00;99.90;;;;;;5052676;28;20071;-70
2022/08/29 04:07:54;;;;;;;8.90;3.28;;;23.90;99.90;;;;;;5052195;28;20538;-72
2022/08/29 04:10:31;;;;;;;;;;;24.00;99.90;;;;;;5053052;28;20444;-70
2022/08/29 04:12:58;;;;;;;7.13;3.38;;;23.90;99.90;;;;;;5052718;28;19908;-71
2022/08/29 04:15:26;;;;;;;9.32;3.80;;;23.90;99.90;;;;;;5052417;28;20025;-70
2022/08/29 04:17:55;;;;;;;6.05;3.58;;;23.80;99.90;;;;;;5053547;28;20171;-71
2022/08/29 04:20:23;;;;;;;7.53;3.80;;;23.80;99.90;;;;;;5053491;28;20025;-70
2022/08/29 04:22:50;;;;;;;8.52;3.92;;;23.80;99.90;;;;;;5053430;28;20048;-70
2022/08/29 04:25:17;;;;;;;7.43;3.88;;;23.80;99.90;;;;;;5053978;28;20025;-69
2022/08/29 04:27:43;;;;;;;10.93;3.97;;;23.80;99.90;;;;;;5053228;28;20063;-69
2022/08/29 04:30:16;;;;;;;7.50;4.35;;;23.70;99.90;;;;;;5053254;28;20033;-70
2022/08/29 04:32:42;;;;;;;8.95;3.92;;;23.70;99.90;;;;;;5053541;28;20029;-70
2022/08/29 04:35:09;;;;;;;8.73;4.13;;;23.70;99.90;;;;;;5053754;28;20033;-70
2022/08/29 04:37:34;;;;;;;;;;;23.60;99.90;;;;;;5053597;28;20079;-70
2022/08/29 04:40:01;;;;;;;9.13;4.53;;;23.60;99.90;;;;;;5053267;28;19904;-70
2022/08/29 04:42:27;;;;;;;9.80;4.55;;;23.60;99.90;;;;;;5053817;28;20029;-70
2022/08/29 04:44:53;;;;;;;11.15;4.53;;;23.50;99.90;;;;;;5053825;28;20021;-70
2022/08/29 04:47:22;;;;;;;10.80;4.50;;;23.50;99.90;;;;;;5053187;28;20385;-69
2022/08/29 04:49:54;;;;;;;8.45;4.57;;;23.50;99.90;;;;;;5053634;28;20041;-69
2022/08/29 04:52:20;;;;;;;8.43;4.25;;;23.50;99.90;;;;;;5053967;28;20023;-70
2022/08/29 04:54:46;;;;;;;10.73;4.65;;;23.50;99.90;;;;;;5054134;28;20021;-70
2022/08/29 04:57:12;;;;;;;8.73;4.63;;;23.50;99.90;;;;;;5053129;28;20021;-70
2022/08/29 04:59:38;;;;;;;10.02;4.43;;;23.60;99.90;;;;;;5053078;28;20028;-70
2022/08/29 05:02:04;;;;;;;12.23;5.00;;;23.60;99.90;;;;;;5051846;28;20033;-70
2022/08/29 05:04:30;;;;;;;13.98;4.95;;;23.70;99.90;;;;;;5053541;28;20047;-70
2022/08/29 05:06:59;;;;;;;10.65;4.63;;;23.70;99.90;;;;;;5053030;28;20029;-70
2022/08/29 05:09:25;;;;;;;10.45;4.30;;;23.80;99.90;;;;;;5053405;28;20576;-70
2022/08/29 05:11:51;;;;;;;7.18;4.35;;;23.80;99.90;;;;;;5053388;28;20052;-70
2022/08/29 05:14:17;;;;;;;12.38;4.38;;;23.80;99.90;;;;;;5052948;28;20033;-70
2022/08/29 05:16:44;;;;;;;8.70;4.00;;;23.90;99.90;;;;;;5052888;28;20017;-70
2022/08/29 05:19:10;;;;;;;8.55;3.60;;;23.90;99.90;;;;;;5056033;28;20068;-70
2022/08/29 05:21:38;;;;;;;12.50;4.05;;;24.00;99.90;;;;;;5056430;28;20532;-70
2022/08/29 05:24:08;;;;;;;7.65;3.58;;;24.10;99.90;;;;;;5056107;28;20025;-70
2022/08/29 05:26:37;;;;;;;9.90;3.50;;;24.80;99.90;;;;;;5055654;28;20099;-71
2022/08/29 05:29:06;;;;;;;7.25;3.20;;;25.90;99.90;;;;;;5056483;28;20029;-70
2022/08/29 05:31:35;;;;;;;8.50;2.63;;;27.00;99.90;;;;;;5056054;28;20093;-70
2022/08/29 05:34:01;;;;;;;9.32;2.83;;;28.10;99.90;;;;;;5054503;28;20048;-70
2022/08/29 05:36:27;;;;;;;4.90;2.15;;;29.60;99.90;;;;;;5054571;28;20485;-70
2022/08/29 05:38:54;;;;;;;4.13;2.10;;;31.00;99.90;;;;;;5054589;28;20381;-71
2022/08/29 05:41:20;;;;;;;4.20;1.67;;;31.90;99.90;;;;;;5056383;28;20028;-70
2022/08/29 05:43:46;;;;;;;7.03;1.60;;;33.10;99.90;;;;;;5055781;28;20017;-71
2022/08/29 05:46:12;;;;;;;5.88;1.77;;;34.20;99.90;;;;;;5056060;28;20373;-71
2022/08/29 05:48:44;;;;;;;7.10;2.00;;;35.10;99.90;;;;;;5055507;28;20025;-71
2022/08/29 05:51:21;;;;;;;4.07;1.77;;;36.00;99.90;;;;;;5055147;28;20028;-71
2022/08/29 05:53:47;;;;;;;6.20;1.65;;;37.00;99.90;;;;;;5053483;28;20032;-71
2022/08/29 05:56:21;;;;;;;8.70;1.80;;;37.20;99.90;;;;;;5054660;28;20064;-71
2022/08/29 05:58:47;;;;;;;5.45;1.50;;;37.50;99.90;;;;;;5054805;28;20017;-71
2022/08/29 06:01:26;;;;;;;4.55;1.60;;;38.00;99.90;;;;;;5054420;28;20098;-71
2022/08/29 06:03:52;;;;;;;4.55;1.77;;;38.40;99.90;;;;;;5054478;28;20021;-71
2022/08/29 06:06:21;;;;;;;5.60;1.60;;;38.50;99.90;;;;;;5054333;28;20079;-71
2022/08/29 06:08:48;;;;;;;5.70;1.88;;;38.70;99.90;;;;;;5054996;28;20037;-71
2022/08/29 06:11:16;;;;;;;5.05;1.50;;;38.50;99.60;;;;;;5053264;28;20465;-71
2022/08/29 06:13:42;;;;;;;9.43;1.80;;;38.20;99.90;;;;;;5054965;28;20098;-70
2022/08/29 06:16:14;;;;;;;7.13;1.95;;;37.10;99.90;;;;;;5054488;28;20051;-70
2022/08/29 06:18:40;;;;;;;3.88;1.70;;;35.80;99.90;;;;;;5054884;28;20470;-70
2022/08/29 06:21:08;;;;;;;4.80;1.65;;;35.60;99.90;;;;;;5055043;28;20040;-70
2022/08/29 06:23:35;;;;;;;8.32;2.50;;;35.30;99.90;;;;;;5055521;28;20017;-70
2022/08/29 06:26:01;;;;;;;7.95;2.03;;;35.60;99.90;;;;;;5055260;28;20477;-70
2022/08/29 06:28:29;;;;;;;5.50;1.90;;;35.20;99.90;;;;;;5054325;28;20339;-70
2022/08/29 06:30:56;;;;;;;5.38;1.60;;;35.10;99.90;;;;;;5052960;28;20083;-70
2022/08/29 06:33:22;;;;;;;5.55;2.08;;;34.90;99.90;;;;;;5054933;28;20045;-70
2022/08/29 06:35:48;;;;;;;5.88;2.40;;;36.50;99.90;;;;;;5054764;28;20021;-71
2022/08/29 06:38:14;;;;;;;7.40;2.30;;;37.60;99.60;;;;;;5055146;28;20021;-70
2022/08/29 06:40:40;;;;;;;6.63;2.10;;;38.00;98.30;;;;;;5054912;28;20314;-70
2022/08/29 06:43:07;;;;;;;8.48;2.50;;;36.70;98.60;;;;;;5055033;28;20017;-71
2022/08/29 06:45:38;;;;;;;8.52;2.92;;;37.20;98.80;;;;;;5054527;28;20041;-71
2022/08/29 06:48:04;;;;;;;8.95;3.10;;;37.90;98.10;;;;;;5054925;28;20359;-72
2022/08/29 06:50:30;;;;;;;6.10;2.58;;;38.80;97.40;;;;;;5054112;28;20044;-70
2022/08/29 06:52:56;;;;;;;5.97;2.83;;;40.20;96.30;;;;;;5054239;28;20498;-70
2022/08/29 06:55:22;;;;;;;5.50;2.90;;;39.80;94.90;;;;;;5054311;28;20028;-70
2022/08/29 06:57:48;;;;;;;8.43;2.63;;;39.40;95.20;;;;;;5054554;28;20465;-71
2022/08/29 07:00:15;;;;;;;6.93;2.53;;;40.10;95.70;;;;;;5054294;28;20047;-71
2022/08/29 07:02:42;;;;;;;12.18;2.60;;;41.30;94.20;;;;;;5053790;28;20098;-70
2022/08/29 07:05:08;;;;;;;5.88;2.45;;;42.60;92.30;;;;;;5053764;28;20381;-70
2022/08/29 07:07:34;;;;;;;7.97;2.40;;;41.50;92.70;;;;;;5052916;28;20390;-70
2022/08/29 07:10:00;;;;;;;6.15;1.83;;;42.20;92.30;;;;;;5053758;28;20477;-70
2022/08/29 07:12:26;;;;;;;7.93;1.88;;;41.60;92.40;;;;;;5053924;28;20017;-70
2022/08/29 07:14:53;;;;;;;5.47;1.80;;;43.30;91.60;;;;;;5053612;28;20096;-70
2022/08/29 07:17:19;;;;;;;5.38;1.55;;;44.00;90.20;;;;;;5053824;28;20082;-69
2022/08/29 07:19:46;;;;;;;7.40;2.00;;;42.50;89.20;;;;;;5053555;28;20032;-70
2022/08/29 07:22:12;;;;;;;6.72;2.30;;;43.20;90.50;;;;;;5053654;28;20058;-70
2022/08/29 07:24:38;;;;;;;7.70;2.00;;;43.10;90.10;;;;;;5053944;28;20056;-70
2022/08/29 07:27:04;;;;;;;6.75;1.73;;;41.60;90.30;;;;;;5053553;28;20091;-69
2022/08/29 07:29:30;;;;;;;4.40;1.63;;;41.00;90.70;;;;;;5053816;28;20492;-70
2022/08/29 07:31:56;;;;;;;7.38;1.60;;;39.40;91.60;;;;;;5053437;28;20026;-69
2022/08/29 07:34:22;;;;;;;8.35;1.75;;;38.20;92.80;;;;;;5053470;28;20040;-69
2022/08/29 07:36:49;;;;;;;10.40;1.90;;;37.70;93.20;;;;;;5053735;28;20057;-69
2022/08/29 07:39:17;;;;;;;5.95;1.50;;;36.80;93.90;;;;;;5053312;28;20381;-70
2022/08/29 07:41:44;;;;;;;5.18;1.80;;;36.10;94.60;;;;;;5053551;28;20043;-70
2022/08/29 07:44:12;;;;;;;3.25;1.55;;;35.20;95.50;;;;;;5052914;28;20107;-70
2022/08/29 07:46:38;;;;;;;7.57;2.00;;;34.90;96.10;;;;;;5052412;28;20025;-70
2022/08/29 07:49:05;;;;;;;5.30;1.70;;;34.60;96.50;;;;;;5050878;28;20032;-71
2022/08/29 07:51:31;;;;;;;6.22;1.58;;;34.50;96.70;;;;;;5052512;28;20132;-71
2022/08/29 07:53:58;;;;;;;4.57;1.60;;;34.90;96.60;;;;;;5051917;28;20029;-70
2022/08/29 07:56:31;;;;;;;5.93;2.15;;;34.80;96.60;;;;;;5052308;28;20029;-70
2022/08/29 07:59:00;;;;;;;6.55;1.90;;;34.70;96.40;;;;;;5051878;28;20033;-70
2022/08/29 08:01:26;;;;;;;9.05;1.80;;;34.90;96.30;;;;;;5051847;28;20037;-70
2022/08/29 08:03:53;;;;;;;5.75;1.65;;;34.00;96.80;;;;;;5051960;28;20104;-69
2022/08/29 08:06:23;;;;;;;7.25;1.50;;;33.60;97.00;;;;;;5052565;28;20035;-69
2022/08/29 08:08:50;;;;;;;7.82;1.90;;;33.60;97.50;;;;;;5051799;28;20041;-71
2022/08/29 08:11:16;;;;;;;7.28;2.60;;;33.60;97.30;;;;;;5052035;28;20029;-70
2022/08/29 08:13:43;;;;;;;6.70;1.75;;;33.70;97.20;;;;;;5051759;28;20466;-70
2022/08/29 08:16:15;;;;;;;6.78;1.65;;;33.60;96.90;;;;;;5051779;28;20025;-69
2022/08/29 08:18:42;;;;;;;10.23;1.70;;;33.50;96.80;;;;;;5052354;28;20071;-69
2022/08/29 08:21:10;;;;;;;4.75;1.58;;;33.50;97.00;;;;;;5052646;28;20029;-69
2022/08/29 08:23:37;;;;;;;4.80;1.60;;;33.40;97.00;;;;;;5052779;28;20013;-69
2022/08/29 08:26:04;;;;;;;7.30;1.92;;;33.50;97.10;;;;;;5052017;28;20040;-70
2022/08/29 08:28:31;;;;;;;7.68;1.80;;;33.50;97.00;;;;;;5052362;28;20033;-70
2022/08/29 08:30:58;;;;;;;7.60;1.70;;;33.80;96.70;;;;;;5052549;28;20025;-69
2022/08/29 08:33:24;;;;;;;3.97;1.60;;;33.80;96.80;;;;;;5051835;28;20021;-70
2022/08/29 08:35:51;;;;;;;5.70;1.88;;;33.60;96.90;;;;;;5052328;28;20105;-71
2022/08/29 08:38:18;;;;;;;4.53;2.13;;;33.80;96.00;;;;;;5052946;28;20021;-70
2022/08/29 08:41:04;;;;;;;9.45;2.30;;;34.20;99.90;;;;;;5050602;28;20040;-69
2022/08/29 08:43:45;;;;;;;7.03;1.90;;;34.10;99.80;;;;;;5052206;28;20116;-69
2022/08/29 08:46:11;;;;;;;8.80;2.42;;;34.20;96.10;;;;;;5052288;28;20376;-69
2022/08/29 08:48:39;;;;;;;7.43;2.33;;;34.20;99.90;;;;;;5050837;28;20025;-69
2022/08/29 08:51:19;;;;;;;10.98;2.40;;;34.20;99.40;;;;;;5051696;28;20060;-70
2022/08/29 08:53:51;;;;;;;6.25;2.05;;;34.10;99.90;;;;;;5051300;28;20366;-69
2022/08/29 08:56:45;;;;;;;9.57;2.42;;;34.20;99.90;;;;;;5051792;28;20028;-70
2022/08/29 08:59:27;;;;;;;5.82;1.77;;;34.10;99.90;;;;;;5051886;28;20017;-69
2022/08/29 09:02:02;;;;;;;6.38;2.20;;;34.30;99.90;;;;;;5051679;28;20025;-69
2022/08/29 09:04:28;;;;;;;7.50;2.60;;;34.40;99.90;;;;;;5051994;28;20037;-70
2022/08/29 09:07:03;;;;;;;;;;;34.30;99.90;;;;;;5052176;28;20462;-70
2022/08/29 09:09:54;;;;;;;21.20;3.35;;;34.40;99.90;;;;;;5052141;28;19912;-70
2022/08/29 09:12:50;;;;;;;8.75;2.63;;;34.60;99.90;;;;;;5052110;28;20032;-71
2022/08/29 09:15:22;;;;;;;7.10;2.42;;;34.30;99.90;;;;;;5051284;28;20083;-69
2022/08/29 09:17:54;;;;;;;6.65;2.30;;;34.10;99.90;;;;;;5051838;28;20074;-69
2022/08/29 09:20:27;;;;;;;13.73;2.92;;;33.50;99.90;;;;;;5051688;28;20021;-69
2022/08/29 09:23:28;;;;;;;8.70;2.67;;;33.30;99.90;;;;;;5052196;28;20027;-69
2022/08/29 09:25:54;;;;;;;10.35;2.78;;;33.20;99.90;;;;;;5050033;28;20051;-69
2022/08/29 09:28:21;;;;;;;6.25;2.55;;;32.80;99.90;;;;;;5051406;28;20056;-69
2022/08/29 09:31:05;;;;;;;;;;;32.50;99.90;;;;;;5051924;28;20036;-69
2022/08/29 09:33:44;;;;;;;7.05;2.80;;;32.20;99.90;;;;;;5051797;28;19904;-70
2022/08/29 09:36:31;;;;;;;8.02;2.85;;;32.20;99.90;;;;;;5050709;28;20314;-71
2022/08/29 09:39:18;;;;;;;7.15;2.28;;;32.30;99.90;;;;;;5051551;28;20466;-69
2022/08/29 09:41:46;;;;;;;9.38;2.67;;;32.30;99.90;;;;;;5051799;28;20025;-70
2022/08/29 09:44:23;;;;;;;7.32;2.40;;;32.10;99.90;;;;;;5051164;28;20470;-70
2022/08/29 09:47:08;;;;;;;7.95;2.55;;;32.00;99.90;;;;;;5051093;28;20075;-69
2022/08/29 09:49:36;;;;;;;7.05;2.55;;;32.10;99.90;;;;;;5051101;28;20048;-69
2022/08/29 09:52:13;;;;;;;9.35;2.55;;;32.30;99.90;;;;;;5050992;28;20018;-69
2022/08/29 09:54:40;;;;;;;5.53;2.55;;;32.50;99.90;;;;;;5049771;28;20029;-70
2022/08/29 09:57:18;;;;;;;5.85;2.40;;;32.60;99.90;;;;;;5051310;28;20430;-70
2022/08/29 09:59:48;;;;;;;6.18;2.10;;;32.50;99.90;;;;;;5051150;28;20036;-69
2022/08/29 10:02:31;;;;;;;7.70;2.40;;;32.70;99.90;;;;;;5051616;28;20052;-71
2022/08/29 10:05:08;;;;;;;9.30;2.85;;;32.80;99.90;;;;;;5053522;28;20029;-70
2022/08/29 10:07:46;;;;;;;8.63;2.95;;;32.50;99.90;;;;;;5054463;28;20119;-70
2022/08/29 10:10:23;;;;;;;8.13;2.38;;;32.40;99.90;;;;;;5054804;28;20025;-70
2022/08/29 10:13:17;;;;;;;5.78;2.10;;;32.50;99.90;;;;;;5054982;28;20025;-69
2022/08/29 10:15:57;;;;;;;5.80;2.65;;;32.50;99.90;;;;;;5054867;28;20029;-70
2022/08/29 10:18:35;;;;;;;10.85;2.63;;;32.50;99.90;;;;;;5055418;28;20031;-70
2022/08/29 10:21:11;;;;;;;12.80;2.65;;;32.60;99.90;;;;;;5055552;28;20553;-70
2022/08/29 10:24:05;;;;;;;10.52;2.80;;;32.70;99.90;;;;;;5054068;28;20039;-70
2022/08/29 10:26:44;;;;;;;10.10;2.40;;;32.80;99.90;;;;;;5054748;28;20043;-70
2022/08/29 10:29:36;;;;;;;7.13;2.33;;;32.80;99.90;;;;;;5054475;28;20036;-70
2022/08/29 10:32:19;;;;;;;8.52;2.47;;;33.00;99.90;;;;;;5055019;28;20021;-70
2022/08/29 10:35:04;;;;;;;10.00;2.45;;;33.00;99.90;;;;;;5054576;28;20098;-71
2022/08/29 10:37:58;;;;;;;6.80;2.35;;;32.90;99.90;;;;;;5054784;28;20059;-70
2022/08/29 10:41:00;;;;;;;8.07;2.28;;;32.90;99.90;;;;;;5052895;28;20021;-69
2022/08/29 10:43:54;;;;;;;5.88;2.28;;;32.80;99.90;;;;;;5054314;28;20025;-70
2022/08/29 10:46:32;;;;;;;7.22;2.28;;;32.80;99.90;;;;;;5054433;28;20469;-70
2022/08/29 10:49:22;;;;;;;6.38;2.00;;;32.80;99.90;;;;;;5054457;28;20393;-70
2022/08/29 10:52:21;;;;;;;7.95;1.88;;;32.90;99.90;;;;;;5054306;28;20035;-70
2022/08/29 10:55:08;;;;;;;5.88;1.95;;;32.80;99.90;;;;;;5054692;28;20025;-71
2022/08/29 10:57:53;;;;;;;8.13;2.15;;;32.70;99.90;;;;;;5054593;28;20025;-72
2022/08/29 11:00:23;;;;;;;7.55;1.98;;;32.50;99.90;;;;;;5054196;28;20021;-71
2022/08/29 11:03:02;;;;;;;5.75;2.00;;;32.50;99.90;;;;;;5054636;28;20070;-71
2022/08/29 11:05:34;;;;;;;6.55;1.80;;;32.80;99.90;;;;;;5054550;28;20029;-71
2022/08/29 11:08:22;;;;;;;7.50;2.20;;;32.70;99.90;;;;;;5054147;28;20029;-71
2022/08/29 11:10:51;;;;;;;7.43;2.08;;;32.70;99.90;;;;;;5054194;28;20390;-70
2022/08/29 11:13:33;;;;;;;7.60;2.05;;;32.80;99.90;;;;;;5053900;28;20116;-72
2022/08/29 11:16:18;;;;;;;4.55;2.08;;;32.80;99.90;;;;;;5054243;28;20212;-71
2022/08/29 11:18:59;;;;;;;3.97;1.80;;;32.90;99.90;;;;;;5054926;28;20029;-71
2022/08/29 11:21:32;;;;;;;5.93;2.08;;;33.00;99.90;;;;;;5054702;28;20461;-68
2022/08/29 11:24:01;;;;;;;10.60;2.20;;;33.20;99.90;;;;;;5054635;28;20409;-70
2022/08/29 11:26:47;;;;;;;5.85;1.80;;;33.30;99.90;;;;;;5053855;28;20083;-69
2022/08/29 11:29:37;;;;;;;7.60;1.90;;;33.30;99.90;;;;;;5054355;28;20434;-69
2022/08/29 11:32:21;;;;;;;8.88;1.90;;;33.30;99.90;;;;;;5054090;28;20127;-69
2022/08/29 11:35:06;;;;;;;6.90;1.98;;;33.40;99.90;;;;;;5054130;28;20472;-69
2022/08/29 11:37:40;;;;;;;8.02;1.90;;;33.50;99.90;;;;;;5054167;28;20124;-69
2022/08/29 11:40:36;;;;;;;9.18;1.73;;;33.40;99.90;;;;;;5053649;28;20036;-69
2022/08/29 11:43:04;;;;;;;4.50;1.55;;;33.40;99.90;;;;;;5053839;28;20361;-69
2022/08/29 11:45:37;;;;;;;5.90;1.73;;;33.40;99.90;;;;;;5053636;28;20029;-69
2022/08/29 11:48:09;;;;;;;4.68;1.70;;;33.50;99.90;;;;;;5053738;28;20021;-69
2022/08/29 11:50:37;;;;;;;12.52;1.90;;;33.60;99.90;;;;;;5053843;28;20033;-69
2022/08/29 11:53:36;;;;;;;7.43;1.98;;;33.40;99.90;;;;;;5052091;28;20170;-69
2022/08/29 11:56:11;;;;;;;8.68;2.00;;;33.40;99.90;;;;;;5053473;28;20068;-69
2022/08/29 11:58:41;;;;;;;6.33;2.20;;;33.50;99.90;;;;;;5053413;28;20443;-69
2022/08/29 12:01:24;;;;;;;8.93;1.98;;;33.40;99.90;;;;;;5053265;28;20135;-69
2022/08/29 12:03:52;;;;;;;7.53;2.33;;;33.40;99.90;;;;;;5053804;28;20096;-69
2022/08/29 12:06:37;;;;;;;6.18;2.05;;;33.40;99.90;;;;;;5053378;28;20028;-69
2022/08/29 12:09:37;;;;;;;7.53;2.00;;;33.40;99.90;;;;;;5051575;28;20500;-69
2022/08/29 12:12:03;;;;;;;6.13;2.10;;;33.30;99.90;;;;;;5052912;28;20025;-69
2022/08/29 12:14:31;;;;;;;;;;;33.20;99.90;;;;;;5053791;28;20078;-69
2022/08/29 12:17:01;;;;;;;10.30;2.33;;;33.30;99.90;;;;;;5053061;28;20007;-69
2022/08/29 12:19:48;;;;;;;6.40;1.83;;;33.30;99.90;;;;;;5053025;28;20017;-69
2022/08/29 12:22:50;;;;;;;6.03;1.73;;;33.10;99.90;;;;;;5053506;28;20021;-69
2022/08/29 12:25:35;;;;;;;8.82;1.90;;;33.10;99.90;;;;;;5052968;28;20489;-69
2022/08/29 12:28:40;;;;;;;5.03;1.70;;;33.30;99.90;;;;;;5051989;28;20045;-69
2022/08/29 12:31:24;;;;;;;4.32;1.30;;;33.30;99.90;;;;;;5052913;28;20068;-70
2022/08/29 12:34:28;;;;;;;7.85;1.90;;;33.30;99.90;;;;;;5052665;28;20029;-69
2022/08/29 12:37:30;;;;;;;5.28;1.23;;;33.40;99.90;;;;;;5041919;28;20091;-69
2022/08/29 12:40:20;;;;;;;8.40;1.77;;;33.50;99.90;;;;;;5053294;28;20017;-70
2022/08/29 12:42:51;;;;;;;6.72;1.77;;;33.50;99.90;;;;;;5052900;28;20029;-70
2022/08/29 12:45:29;;;;;;;7.68;1.95;;;33.60;99.30;;;;;;5052879;28;20485;-69
2022/08/29 12:48:05;;;;;;;6.30;1.75;;;33.60;99.90;;;;;;5053371;28;20104;-69
2022/08/29 12:50:36;;;;;;;8.93;1.65;;;33.70;99.50;;;;;;5053342;28;20483;-69
2022/08/29 12:53:02;;;;;;;8.38;1.92;;;33.70;99.30;;;;;;5052678;28;20147;-70
2022/08/29 12:55:33;;;;;;;;;;;33.90;99.90;;;;;;5053521;28;20032;-71
2022/08/29 12:57:59;;;;;;;6.18;1.75;;;34.00;99.90;;;;;;5052719;28;19962;-70
2022/08/29 13:00:31;;;;;;;8.88;2.33;;;33.90;99.90;;;;;;5051212;28;20033;-70
2022/08/29 13:03:04;;;;;;;7.60;2.30;;;33.80;99.90;;;;;;5052743;28;20096;-71
2022/08/29 13:05:35;;;;;;;6.15;1.73;;;33.70;99.90;;;;;;5052579;28;20028;-71
2022/08/29 13:08:06;;;;;;;5.90;1.80;;;33.70;99.90;;;;;;5052782;28;20463;-70
2022/08/29 13:10:53;;;;;;;4.50;1.90;;;33.80;99.90;;;;;;5052973;28;20041;-71